createdAt,value
2018-12-14T00:01:04.496Z,47.68
2018-12-14T00:03:32.127Z,47.23
2018-12-14T00:05:59.787Z,46.93
2018-12-14T00:08:27.432Z,48.04
2018-12-14T00:10:55.086Z,46.62
2018-12-14T00:13:22.739Z,47.03
2018-12-14T00:15:50.404Z,47.24
2018-12-14T00:18:18.056Z,46.69
2018-12-14T00:20:45.705Z,47.43
2018-12-14T00:23:13.356Z,47.39
2018-12-14T00:25:41.010Z,47.13
2018-12-14T00:28:08.660Z,47.41
2018-12-14T00:30:36.370Z,47.63
2018-12-14T00:33:04.019Z,47.18
2018-12-14T00:35:31.706Z,47.19
2018-12-14T00:37:59.406Z,47.49
2018-12-14T00:40:27.057Z,47.46
2018-12-14T00:42:54.711Z,46.77
2018-12-14T00:45:22.399Z,47.59
2018-12-14T00:47:50.090Z,47.65
2018-12-14T00:50:17.759Z,47.03
2018-12-14T00:52:45.603Z,46.68
2018-12-14T00:55:13.258Z,46.95
2018-12-14T00:57:40.899Z,47.35
2018-12-14T01:00:09.290Z,47.47
2018-12-14T01:02:36.959Z,47.61
2018-12-14T01:05:04.772Z,46.68
2018-12-14T01:07:32.435Z,47.62
2018-12-14T01:10:00.096Z,47.60
2018-12-14T01:12:27.728Z,47.53
2018-12-14T01:14:55.411Z,46.82
2018-12-14T01:17:23.121Z,47.29
2018-12-14T01:19:50.776Z,47.26
2018-12-14T01:22:18.497Z,47.39
2018-12-14T01:24:46.703Z,46.70
2018-12-14T01:27:14.353Z,47.38
2018-12-14T01:29:42.351Z,46.64
2018-12-14T01:32:10.019Z,47.48
2018-12-14T01:34:37.684Z,46.43
2018-12-14T01:37:05.326Z,46.65
2018-12-14T01:39:32.956Z,46.71
2018-12-14T01:42:04.794Z,47.23
2018-12-14T01:44:30.271Z,47.27
2018-12-14T01:46:57.903Z,46.49
2018-12-14T01:49:25.577Z,46.46
2018-12-14T01:51:53.271Z,46.51
2018-12-14T01:54:20.887Z,47.06
2018-12-14T01:56:48.520Z,46.38
2018-12-14T01:59:16.166Z,46.60
2018-12-14T02:01:43.842Z,47.21
2018-12-14T02:04:11.518Z,46.77
2018-12-14T02:06:39.281Z,47.22
2018-12-14T02:09:07.164Z,47.23
2018-12-14T02:11:34.809Z,46.80
2018-12-14T02:14:02.470Z,46.84
2018-12-14T02:16:30.107Z,46.90
2018-12-14T02:18:57.766Z,47.30
2018-12-14T02:21:25.388Z,47.00
2018-12-14T02:23:53.032Z,46.50
2018-12-14T02:26:20.697Z,46.40
2018-12-14T02:28:48.400Z,47.11
2018-12-14T02:31:16.124Z,46.67
2018-12-14T02:33:43.750Z,46.34
2018-12-14T02:36:11.383Z,47.13
2018-12-14T02:38:39.019Z,46.35
2018-12-14T02:41:06.639Z,46.80
2018-12-14T02:43:34.570Z,46.39
2018-12-14T02:46:02.360Z,46.88
2018-12-14T02:48:29.978Z,47.24
2018-12-14T02:50:57.602Z,47.46
2018-12-14T02:53:25.335Z,46.63
2018-12-14T02:55:52.948Z,47.22
2018-12-14T02:58:20.581Z,47.05
2018-12-14T03:00:48.213Z,46.99
2018-12-14T03:03:15.907Z,47.34
2018-12-14T03:05:43.584Z,46.57
2018-12-14T03:08:11.214Z,47.39
2018-12-14T03:10:38.839Z,47.33
2018-12-14T03:13:06.503Z,46.96
2018-12-14T03:15:34.139Z,46.70
2018-12-14T03:18:01.816Z,46.71
2018-12-14T03:20:29.579Z,46.43
2018-12-14T03:22:57.301Z,46.54
2018-12-14T03:25:24.977Z,47.13
2018-12-14T03:27:52.611Z,46.43
2018-12-14T03:30:20.266Z,47.05
2018-12-14T03:32:48.030Z,46.64
2018-12-14T03:35:15.737Z,46.74
2018-12-14T03:37:43.388Z,46.23
2018-12-14T03:40:11.071Z,47.15
2018-12-14T03:42:38.725Z,46.39
2018-12-14T03:45:06.356Z,46.85
2018-12-14T03:47:34.016Z,46.70
2018-12-14T03:50:01.687Z,47.24
2018-12-14T03:52:29.376Z,46.64
2018-12-14T03:54:57.025Z,46.63
2018-12-14T03:57:24.710Z,47.26
2018-12-14T03:59:52.355Z,46.37
2018-12-14T04:02:20.079Z,47.10
2018-12-14T04:04:47.736Z,46.93
2018-12-14T04:07:15.370Z,46.12
2018-12-14T04:09:43.039Z,46.89
2018-12-14T04:12:10.714Z,47.43
2018-12-14T04:14:38.396Z,46.95
2018-12-14T04:17:06.067Z,47.17
2018-12-14T04:19:33.706Z,47.16
2018-12-14T04:22:01.362Z,47.01
2018-12-14T04:24:29.139Z,46.69
2018-12-14T04:26:56.763Z,46.70
2018-12-14T04:29:24.432Z,47.71
2018-12-14T04:31:52.087Z,47.13
2018-12-14T04:34:19.868Z,47.30
2018-12-14T04:36:47.541Z,46.59
2018-12-14T04:39:15.231Z,46.67
2018-12-14T04:41:42.880Z,47.24
2018-12-14T04:44:10.545Z,46.52
2018-12-14T04:46:38.292Z,46.51
2018-12-14T04:49:06.056Z,47.03
2018-12-14T04:51:33.738Z,47.35
2018-12-14T04:54:01.421Z,47.01
2018-12-14T04:56:29.084Z,46.90
2018-12-14T04:58:56.739Z,46.99
2018-12-14T05:01:24.372Z,47.00
2018-12-14T05:03:52.023Z,46.74
2018-12-14T05:06:19.659Z,46.28
2018-12-14T05:08:47.331Z,47.27
2018-12-14T05:11:14.951Z,47.29
2018-12-14T05:13:42.609Z,47.12
2018-12-14T05:16:10.246Z,47.25
2018-12-14T05:18:37.906Z,46.74
2018-12-14T05:21:05.539Z,47.41
2018-12-14T05:23:33.208Z,46.64
2018-12-14T05:26:00.867Z,46.79
2018-12-14T05:28:28.507Z,46.84
2018-12-14T05:30:56.147Z,46.71
2018-12-14T05:33:23.789Z,47.32
2018-12-14T05:35:51.431Z,47.14
2018-12-14T05:38:19.117Z,46.57
2018-12-14T05:40:46.772Z,46.46
2018-12-14T05:43:14.420Z,47.14
2018-12-14T05:45:42.084Z,46.51
2018-12-14T05:48:09.804Z,47.11
2018-12-14T05:50:37.508Z,47.31
2018-12-14T05:53:05.208Z,47.51
2018-12-14T05:55:32.929Z,46.65
2018-12-14T05:58:00.674Z,47.35
2018-12-14T06:00:28.338Z,47.79
2018-12-14T06:02:56.043Z,47.58
2018-12-14T06:05:23.708Z,47.12
2018-12-14T06:07:51.352Z,46.86
2018-12-14T06:10:18.972Z,46.61
2018-12-14T06:12:46.648Z,46.63
2018-12-14T06:15:14.347Z,46.85
2018-12-14T06:17:42.018Z,47.14
2018-12-14T06:20:09.700Z,47.17
2018-12-14T06:22:37.335Z,47.50
2018-12-14T06:25:05.318Z,47.53
2018-12-14T06:27:33.144Z,47.76
2018-12-14T06:30:00.855Z,47.53
2018-12-14T06:32:28.588Z,47.84
2018-12-14T06:34:56.231Z,46.49
2018-12-14T06:37:24.112Z,47.20
2018-12-14T06:39:51.810Z,46.82
2018-12-14T06:42:19.859Z,46.92
2018-12-14T06:44:47.721Z,47.32
2018-12-14T06:47:15.481Z,46.28
2018-12-14T06:49:43.116Z,46.32
2018-12-14T06:52:10.806Z,47.47
2018-12-14T06:54:38.510Z,47.46
2018-12-14T06:57:06.200Z,47.79
2018-12-14T06:59:33.910Z,47.16
2018-12-14T07:02:01.595Z,47.88
2018-12-14T07:04:29.369Z,48.06
2018-12-14T07:06:57.000Z,48.06
2018-12-14T07:09:24.661Z,47.98
2018-12-14T07:11:52.333Z,47.80
2018-12-14T07:14:20.015Z,47.88
2018-12-14T07:16:47.668Z,47.99
2018-12-14T07:19:15.331Z,47.57
2018-12-14T07:21:43.004Z,48.27
2018-12-14T07:24:11.296Z,48.38
2018-12-14T07:26:39.231Z,47.81
2018-12-14T07:29:07.374Z,47.78
2018-12-14T07:31:35.128Z,47.31
2018-12-14T07:34:02.884Z,48.38
2018-12-14T07:36:30.605Z,48.57
2018-12-14T07:38:58.403Z,47.54
2018-12-14T07:41:28.209Z,48.09
2018-12-14T07:43:56.007Z,47.70
2018-12-14T07:46:23.657Z,47.08
2018-12-14T07:48:51.387Z,47.02
2018-12-14T07:51:19.103Z,47.72
2018-12-14T07:53:46.848Z,47.04
2018-12-14T07:56:14.538Z,47.33
2018-12-14T07:58:42.580Z,47.00
2018-12-14T08:01:10.278Z,47.80
2018-12-14T08:03:37.915Z,47.21
2018-12-14T08:06:05.617Z,47.65
2018-12-14T08:08:33.434Z,47.21
2018-12-14T08:11:01.191Z,47.18
2018-12-14T08:13:34.680Z,47.00
2018-12-14T08:15:58.491Z,47.91
2018-12-14T08:18:26.266Z,48.07
2018-12-14T08:20:53.870Z,47.77
2018-12-14T08:23:21.512Z,47.43
2018-12-14T08:25:49.117Z,48.00
2018-12-14T08:28:16.749Z,47.64
2018-12-14T08:30:44.357Z,48.32
2018-12-14T08:33:11.990Z,48.41
2018-12-14T08:35:39.671Z,48.33
2018-12-14T08:38:07.275Z,48.40
2018-12-14T08:40:34.903Z,47.48
2018-12-14T08:43:02.556Z,47.70
2018-12-14T08:45:30.176Z,47.41
2018-12-14T08:47:57.956Z,47.60
2018-12-14T08:50:25.567Z,47.82
2018-12-14T08:52:53.180Z,48.07
2018-12-14T08:55:20.830Z,48.52
2018-12-14T08:57:48.423Z,48.37
2018-12-14T09:00:16.043Z,47.44
2018-12-14T09:02:43.679Z,48.16
2018-12-14T09:05:11.421Z,47.59
2018-12-14T09:07:39.167Z,47.27
2018-12-14T09:10:06.787Z,47.60
2018-12-14T09:12:34.427Z,47.68
2018-12-14T09:15:02.108Z,47.69
2018-12-14T09:17:29.719Z,47.69
2018-12-14T09:19:57.608Z,48.27
2018-12-14T09:22:25.355Z,48.21
2018-12-14T09:24:52.993Z,47.46
2018-12-14T09:27:20.624Z,47.00
2018-12-14T09:29:48.395Z,47.69
2018-12-14T09:32:16.200Z,46.85
2018-12-14T09:34:43.796Z,47.86
2018-12-14T09:37:11.829Z,47.13
2018-12-14T09:39:39.469Z,48.02
2018-12-14T09:42:07.116Z,47.15
2018-12-14T09:44:34.842Z,47.20
2018-12-14T09:47:02.812Z,48.00
2018-12-14T09:49:30.873Z,48.10
2018-12-14T09:51:58.658Z,47.90
2018-12-14T09:54:26.359Z,47.58
2018-12-14T09:56:54.021Z,47.30
2018-12-14T09:59:21.646Z,47.20
2018-12-14T10:01:49.621Z,47.11
2018-12-14T10:04:17.433Z,47.21
2018-12-14T10:06:45.082Z,47.80
2018-12-14T10:09:12.711Z,47.18
2018-12-14T10:11:40.378Z,47.12
2018-12-14T10:14:08.434Z,46.89
2018-12-14T10:16:36.051Z,47.21
2018-12-14T10:19:03.895Z,47.24
2018-12-14T10:21:31.622Z,47.23
2018-12-14T10:23:59.271Z,47.29
2018-12-14T10:26:26.891Z,47.74
2018-12-14T10:28:54.923Z,47.00
2018-12-14T10:31:22.561Z,47.57
2018-12-14T10:33:50.341Z,47.02
2018-12-14T10:36:18.159Z,46.75
2018-12-14T10:38:45.870Z,47.57
2018-12-14T10:41:13.628Z,47.25
2018-12-14T10:43:41.480Z,47.03
2018-12-14T10:46:09.361Z,47.43
2018-12-14T10:48:37.219Z,47.40
2018-12-14T10:51:04.920Z,46.76
2018-12-14T10:53:32.631Z,46.70
2018-12-14T10:56:00.261Z,47.67
2018-12-14T10:58:27.885Z,46.46
2018-12-14T11:01:01.929Z,47.16
2018-12-14T11:03:29.675Z,46.70
2018-12-14T11:05:57.346Z,47.46
2018-12-14T11:08:24.983Z,46.72
2018-12-14T11:10:52.702Z,47.57
2018-12-14T11:13:20.320Z,46.61
2018-12-14T11:15:48.050Z,47.39
2018-12-14T11:18:15.716Z,46.97
2018-12-14T11:20:43.483Z,47.71
2018-12-14T11:23:11.172Z,47.18
2018-12-14T11:25:38.822Z,47.11
2018-12-14T11:28:06.468Z,47.42
2018-12-14T11:30:34.143Z,47.10
2018-12-14T11:33:02.070Z,47.13
2018-12-14T11:35:29.933Z,47.79
2018-12-14T11:37:57.682Z,47.17
2018-12-14T11:40:25.598Z,47.69
2018-12-14T11:42:53.509Z,46.87
2018-12-14T11:45:21.400Z,46.85
2018-12-14T11:47:49.148Z,47.48
2018-12-14T11:50:16.819Z,46.66
2018-12-14T11:52:44.453Z,47.37
2018-12-14T11:55:12.134Z,47.37
2018-12-14T11:57:39.915Z,46.67
2018-12-14T12:00:10.244Z,46.52
2018-12-14T12:02:43.081Z,46.70
2018-12-14T12:05:07.628Z,46.65
2018-12-14T12:07:35.328Z,47.28
2018-12-14T12:10:02.949Z,47.38
2018-12-14T12:12:30.781Z,47.40
2018-12-14T12:14:58.429Z,47.28
2018-12-14T12:17:26.126Z,46.84
2018-12-14T12:19:53.794Z,46.59
2018-12-14T12:22:21.435Z,46.71
2018-12-14T12:24:49.088Z,46.29
2018-12-14T12:27:16.729Z,47.11
2018-12-14T12:29:44.437Z,46.91
2018-12-14T12:32:12.028Z,46.02
2018-12-14T12:34:39.715Z,46.10
2018-12-14T12:37:07.439Z,46.35
2018-12-14T12:39:35.085Z,46.96
2018-12-14T12:42:02.815Z,46.32
2018-12-14T12:44:33.473Z,46.44
2018-12-14T12:47:00.284Z,46.32
2018-12-14T12:49:27.916Z,46.47
2018-12-14T12:51:55.558Z,46.33
2018-12-14T12:54:23.181Z,46.85
2018-12-14T12:56:50.983Z,46.94
2018-12-14T12:59:18.648Z,46.33
2018-12-14T13:01:46.260Z,46.29
2018-12-14T13:04:14.679Z,46.53
2018-12-14T13:06:42.277Z,46.42
2018-12-14T13:09:09.901Z,45.32
2018-12-14T13:11:37.496Z,45.62
2018-12-14T13:14:05.377Z,45.65
2018-12-14T13:16:32.977Z,45.74
2018-12-14T13:19:00.618Z,45.53
2018-12-14T13:21:28.215Z,45.78
2018-12-14T13:23:55.833Z,46.38
2018-12-14T13:26:23.444Z,45.47
2018-12-14T13:28:51.854Z,45.93
2018-12-14T13:31:19.596Z,45.62
2018-12-14T13:33:47.212Z,46.27
2018-12-14T13:36:14.853Z,45.65
2018-12-14T13:38:42.445Z,45.95
2018-12-14T13:41:10.043Z,45.39
2018-12-14T13:43:37.640Z,45.88
2018-12-14T13:46:05.258Z,46.28
2018-12-14T13:48:33.039Z,45.39
2018-12-14T13:51:00.757Z,45.39
2018-12-14T13:53:28.372Z,45.52
2018-12-14T13:55:55.969Z,45.77
2018-12-14T13:58:23.602Z,45.39
2018-12-14T14:00:51.305Z,45.36
2018-12-14T14:03:18.907Z,46.35
2018-12-14T14:05:46.496Z,46.25
2018-12-14T14:08:14.191Z,46.37
2018-12-14T14:10:41.816Z,45.25
2018-12-14T14:13:09.503Z,46.19
2018-12-14T14:15:37.245Z,46.27
2018-12-14T14:18:04.836Z,45.66
2018-12-14T14:20:32.433Z,45.59
2018-12-14T14:23:00.031Z,46.18
2018-12-14T14:25:27.964Z,45.99
2018-12-14T14:27:55.590Z,46.31
2018-12-14T14:30:23.185Z,45.55
2018-12-14T14:32:50.811Z,46.35
2018-12-14T14:35:18.441Z,45.52
2018-12-14T14:37:46.045Z,44.83
2018-12-14T14:40:13.642Z,44.47
2018-12-14T14:42:41.225Z,44.54
2018-12-14T14:45:08.817Z,44.46
2018-12-14T14:47:36.425Z,44.49
2018-12-14T14:50:04.337Z,44.75
2018-12-14T14:52:31.948Z,44.35
2018-12-14T14:54:59.674Z,44.86
2018-12-14T14:57:27.495Z,44.60
2018-12-14T14:59:55.102Z,45.09
2018-12-14T15:02:22.708Z,44.35
2018-12-14T15:04:50.311Z,44.80
2018-12-14T15:07:17.912Z,45.00
2018-12-14T15:09:45.519Z,44.25
2018-12-14T15:12:13.136Z,44.06
2018-12-14T15:14:40.774Z,44.09
2018-12-14T15:17:08.362Z,45.21
2018-12-14T15:19:35.949Z,44.97
2018-12-14T15:22:04.638Z,44.82
2018-12-14T15:24:32.619Z,45.08
2018-12-14T15:27:00.306Z,45.15
2018-12-14T15:29:27.925Z,44.03
2018-12-14T15:31:55.760Z,44.65
2018-12-14T15:34:23.354Z,44.31
2018-12-14T15:36:50.953Z,44.24
2018-12-14T15:39:18.545Z,44.25
2018-12-14T15:41:46.138Z,45.03
2018-12-14T15:44:13.901Z,45.09
2018-12-14T15:46:41.493Z,44.69
2018-12-14T15:49:09.079Z,44.18
2018-12-14T15:51:36.706Z,44.94
2018-12-14T15:54:04.396Z,44.52
2018-12-14T15:56:31.981Z,44.72
2018-12-14T15:58:59.616Z,44.93
2018-12-14T16:01:27.201Z,44.20
2018-12-14T16:03:54.816Z,44.15
2018-12-14T16:06:22.465Z,44.13
2018-12-14T16:08:50.052Z,43.93
2018-12-14T16:11:17.697Z,44.77
2018-12-14T16:13:45.366Z,44.57
2018-12-14T16:16:13.020Z,44.19
2018-12-14T16:18:40.636Z,44.05
2018-12-14T16:21:08.276Z,44.59
2018-12-14T16:23:35.996Z,43.79
2018-12-14T16:26:03.596Z,44.44
2018-12-14T16:28:31.433Z,44.36
2018-12-14T16:30:59.032Z,43.91
2018-12-14T16:33:26.620Z,44.76
2018-12-14T16:35:54.213Z,44.46
2018-12-14T16:38:21.845Z,44.84
2018-12-14T16:40:49.454Z,43.40
2018-12-14T16:43:17.037Z,44.75
2018-12-14T16:45:44.659Z,43.78
2018-12-14T16:48:12.257Z,44.64
2018-12-14T16:50:39.852Z,44.18
2018-12-14T16:53:07.451Z,44.65
2018-12-14T16:55:35.069Z,43.89
2018-12-14T16:58:02.700Z,44.54
2018-12-14T17:00:30.319Z,44.61
2018-12-14T17:02:57.912Z,44.42
2018-12-14T17:05:25.497Z,44.81
2018-12-14T17:07:53.108Z,44.32
2018-12-14T17:10:20.700Z,44.22
2018-12-14T17:12:48.577Z,44.51
2018-12-14T17:15:16.169Z,43.65
2018-12-14T17:17:43.752Z,44.57
2018-12-14T17:20:11.416Z,44.83
2018-12-14T17:22:39.024Z,43.71
2018-12-14T17:25:07.016Z,43.78
2018-12-14T17:27:34.595Z,44.21
2018-12-14T17:30:02.200Z,43.82
2018-12-14T17:32:29.772Z,44.68
2018-12-14T17:34:57.357Z,44.52
2018-12-14T17:37:24.940Z,43.88
2018-12-14T17:39:52.516Z,44.47
2018-12-14T17:42:20.108Z,44.46
2018-12-14T17:44:47.763Z,44.64
2018-12-14T17:47:15.377Z,43.72
2018-12-14T17:49:42.977Z,43.83
2018-12-14T17:52:10.556Z,43.95
2018-12-14T17:54:38.901Z,43.93
2018-12-14T17:57:06.497Z,44.61
2018-12-14T17:59:34.092Z,44.54
2018-12-14T18:02:01.709Z,43.99
2018-12-14T18:04:29.309Z,44.44
2018-12-14T18:06:56.933Z,44.63
2018-12-14T18:09:24.521Z,44.52
2018-12-14T18:11:52.113Z,43.89
2018-12-14T18:14:19.697Z,44.65
2018-12-14T18:16:47.304Z,44.33
2018-12-14T18:19:14.907Z,44.25
2018-12-14T18:21:42.489Z,43.62
2018-12-14T18:24:10.169Z,43.60
2018-12-14T18:26:37.793Z,43.72
2018-12-14T18:29:05.368Z,43.84
2018-12-14T18:31:32.953Z,44.49
2018-12-14T18:34:00.569Z,44.38
2018-12-14T18:36:28.140Z,43.78
2018-12-14T18:38:55.801Z,44.57
2018-12-14T18:41:23.409Z,44.66
2018-12-14T18:43:51.023Z,43.68
2018-12-14T18:46:18.605Z,44.03
2018-12-14T18:48:46.185Z,44.62
2018-12-14T18:51:13.801Z,44.36
2018-12-14T18:53:43.665Z,44.46
2018-12-14T18:56:11.265Z,44.00
2018-12-14T18:58:38.948Z,43.63
2018-12-14T19:01:06.617Z,43.75
2018-12-14T19:03:34.257Z,44.41
2018-12-14T19:06:01.877Z,44.72
2018-12-14T19:08:29.468Z,43.97
2018-12-14T19:10:57.064Z,43.97
2018-12-14T19:13:24.726Z,43.85
2018-12-14T19:15:52.325Z,43.81
2018-12-14T19:18:19.908Z,43.90
2018-12-14T19:20:47.502Z,44.83
2018-12-14T19:23:19.598Z,44.69
2018-12-14T19:25:44.721Z,44.66
2018-12-14T19:28:12.341Z,43.91
2018-12-14T19:30:39.962Z,44.71
2018-12-14T19:33:07.552Z,44.74
2018-12-14T19:35:35.149Z,43.73
2018-12-14T19:38:03.587Z,43.78
2018-12-14T19:40:31.175Z,43.90
2018-12-14T19:42:58.777Z,44.79
2018-12-14T19:45:26.500Z,44.55
2018-12-14T19:47:54.095Z,44.54
2018-12-14T19:50:21.782Z,44.64
2018-12-14T19:52:49.406Z,43.96
2018-12-14T19:55:17.013Z,44.34
2018-12-14T19:57:44.599Z,44.05
2018-12-14T20:00:12.273Z,44.46
2018-12-14T20:02:39.868Z,43.85
2018-12-14T20:05:07.988Z,43.67
2018-12-14T20:07:35.723Z,44.00
2018-12-14T20:10:03.573Z,44.70
2018-12-14T20:12:31.264Z,43.78
2018-12-14T20:14:58.937Z,43.83
2018-12-14T20:17:26.516Z,44.87
2018-12-14T20:19:54.105Z,43.95
2018-12-14T20:22:21.697Z,44.01
2018-12-14T20:24:49.333Z,43.63
2018-12-14T20:27:16.951Z,44.34
2018-12-14T20:29:45.471Z,44.41
2018-12-14T20:32:13.089Z,44.01
2018-12-14T20:34:40.768Z,44.07
2018-12-14T20:37:08.385Z,43.97
2018-12-14T20:39:36.016Z,44.63
2018-12-14T20:42:03.664Z,44.73
2018-12-14T20:44:31.465Z,43.97
2018-12-14T20:46:59.150Z,45.02
2018-12-14T20:49:26.783Z,44.00
2018-12-14T20:51:54.521Z,44.10
2018-12-14T20:54:22.246Z,44.17
2018-12-14T20:56:51.720Z,44.71
2018-12-14T20:59:19.758Z,44.09
2018-12-14T21:01:47.407Z,44.00
2018-12-14T21:04:15.058Z,44.05
2018-12-14T21:06:42.700Z,44.72
2018-12-14T21:09:10.378Z,44.99
2018-12-14T21:11:38.072Z,45.01
2018-12-14T21:14:05.670Z,44.99
2018-12-14T21:16:33.285Z,44.47
2018-12-14T21:19:00.924Z,44.96
2018-12-14T21:21:28.555Z,44.79
2018-12-14T21:23:56.161Z,44.23
2018-12-14T21:26:23.797Z,44.75
2018-12-14T21:28:51.441Z,44.96
2018-12-14T21:31:19.040Z,44.82
2018-12-14T21:33:46.661Z,44.34
2018-12-14T21:36:14.266Z,44.97
2018-12-14T21:38:41.933Z,44.25
2018-12-14T21:41:09.554Z,44.98
2018-12-14T21:43:37.152Z,44.45
2018-12-14T21:46:04.746Z,44.19
2018-12-14T21:48:32.402Z,44.67
2018-12-14T21:51:00.057Z,44.88
2018-12-14T21:53:27.677Z,44.48
2018-12-14T21:55:55.290Z,44.59
2018-12-14T21:58:22.909Z,44.71
2018-12-14T22:00:50.507Z,44.21
2018-12-14T22:03:18.206Z,44.16
2018-12-14T22:05:45.852Z,44.27
2018-12-14T22:08:13.516Z,45.07
2018-12-14T22:10:41.150Z,44.94
2018-12-14T22:13:08.789Z,44.98
2018-12-14T22:15:36.465Z,44.75
2018-12-14T22:18:04.099Z,44.30
2018-12-14T22:20:31.748Z,44.32
2018-12-14T22:22:59.373Z,44.33
2018-12-14T22:25:26.983Z,44.44
2018-12-14T22:27:54.634Z,45.27
2018-12-14T22:30:22.365Z,44.52
2018-12-14T22:32:49.982Z,45.29
2018-12-14T22:35:17.656Z,44.96
2018-12-14T22:37:45.292Z,45.33
2018-12-14T22:40:12.914Z,44.87
2018-12-14T22:42:40.572Z,44.64
2018-12-14T22:45:08.179Z,44.91
2018-12-14T22:47:35.829Z,44.02
2018-12-14T22:50:03.457Z,44.20
2018-12-14T22:52:31.188Z,44.31
2018-12-14T22:54:58.829Z,44.42
2018-12-14T22:57:26.439Z,44.97
2018-12-14T22:59:54.168Z,44.27
2018-12-14T23:02:21.867Z,44.73
2018-12-14T23:04:49.513Z,45.03
2018-12-14T23:07:17.120Z,45.08
2018-12-14T23:09:44.753Z,45.19
2018-12-14T23:12:12.434Z,44.78
2018-12-14T23:14:40.080Z,45.00
2018-12-14T23:17:07.722Z,44.49
2018-12-14T23:19:35.365Z,45.07
2018-12-14T23:22:02.989Z,44.76
2018-12-14T23:24:30.681Z,44.48
2018-12-14T23:26:58.284Z,44.65
2018-12-14T23:29:25.873Z,44.72
2018-12-14T23:31:53.541Z,45.40
2018-12-14T23:34:21.145Z,45.24
2018-12-14T23:36:48.774Z,45.20
2018-12-14T23:39:16.390Z,45.53
2018-12-14T23:41:44.012Z,45.32
2018-12-14T23:44:11.632Z,44.49
2018-12-14T23:46:39.325Z,44.79
2018-12-14T23:49:06.940Z,45.55
2018-12-14T23:51:34.594Z,44.70
2018-12-14T23:54:02.246Z,44.92
2018-12-14T23:56:29.934Z,44.57
2018-12-14T23:58:57.572Z,44.49
